Weather observations for the past three days for
Santa Ynez, Santa Ynez Airport
Imperial (Metric)
Date Time (pdt) Wind (mph) Vis. (mi.) Weather Sky Cond. Temperature (ºF) Relative Humidity Wind Chill (°F) Heat Index (°F) Pressure Precipitation (in)
Air Dwpt 6 hour altimeter (in) sea level (mb) 1 hr 3 hr 6 hr
Max. Min.
10 06:35 Calm 0.25 Fog OVC003 50 50 100% 29.93 0.0
10 05:55 Calm 0.50 Fog/Mist OVC003 50 50 100% 29.93 0.0
10 05:35 Calm 0.75 Fog/Mist OVC003 50 50 100% 29.92 0.0
10 05:15 Calm 0.50 Fog/Mist OVC003 50 50 100% 29.92 0.0
10 04:55 Calm 1.00 Fog/Mist OVC003 51.8 51.8 100% 29.92 0.0
10 04:35 Calm 1.00 Fog/Mist OVC003 51.8 51.8 100% 29.92 0.0
10 04:15 Calm 1.25 Fog/Mist OVC003 51.8 51.8 100% 29.92 0.0
10 03:55 Calm 1.25 Fog/Mist OVC003 51.8 51.8 100% 29.92 0.0
10 03:35 Calm 2.00 Fog/Mist OVC003 51.8 51.8 100% 29.92 0.0
10 03:15 Calm 2.50 Fog/Mist OVC003 51.8 51.8 100% 29.92 0.0
10 02:55 Calm 3.00 Fog/Mist OVC003 51.8 51.8 100% 29.92 0.0
10 02:35 Calm 4.00 Fog/Mist OVC003 51.8 51.8 100% 29.93 0.0
10 02:15 Calm 4.00 Fog/Mist OVC003 51.8 51.8 100% 29.93 0.0
10 01:55 Calm 4.00 Fog/Mist OVC003 51.8 51.8 100% 29.93 0.0
10 01:35 Calm 5.00 Fog/Mist OVC003 51.8 51.8 100% 29.94 0.0
10 01:15 Calm 6.00 Fog/Mist OVC004 51.8 51.8 100% 29.94 0.0
10 00:55 Calm 7.00 Overcast OVC004 51.8 51.8 100% 29.94 0.0
10 00:35 SW 3 3.00 Fog/Mist OVC004 51.8 51.8 100% 29.94 0.0
10 00:15 Calm 5.00 Fog/Mist OVC004 51.8 51.8 100% 29.94 0.0
09 23:55 Calm 5.00 Fog/Mist OVC004 51.8 51.8 100% 29.94 0.0
09 23:35 NW 3 4.00 Fog/Mist OVC003 51.8 51.8 100% 29.94 0.0
09 23:15 Calm 5.00 Fog/Mist OVC003 51.8 51.8 100% 29.94 0.0
09 22:55 Calm 6.00 Fog/Mist OVC003 51.8 51.8 100% 29.95 0.0
09 22:35 SW 3 7.00 Overcast OVC003 51.8 51.8 100% 29.95 0.0
09 22:15 SW 5 7.00 Overcast OVC003 51.8 51.8 100% 29.95 0.0
09 21:55 Calm 7.00 Overcast OVC004 51.8 51.8 100% 29.95 0.0
09 21:35 SW 5 8.00 Overcast SCT004 OVC018 53.6 51.8 94% 29.94 0.0
09 21:15 SW 5 9.00 Overcast OVC018 53.6 51.8 94% 29.94 0.0
09 20:55 SW 6 9.00 Overcast OVC018 53.6 53.6 100% 29.93 0.0
09 20:15 W 7 9.00 Partly Cloudy SCT020 55.4 53.6 94% 29.91 0.0
09 19:55 W 6 10.00 Fair CLR 55.4 53.6 94% 29.91 0.0
09 19:35 W 8 10.00 Fair CLR 59 53.6 82% 29.9 0.0
09 19:15 W 7 10.00 Fair CLR 60.8 53.6 77% 29.9 0.0
09 18:55 SW 7 G 13 10.00 Fair CLR 62.6 53.6 73% 29.9 0.0
09 18:35 W 10 10.00 Fair CLR 64.4 53.6 68% 29.89 0.0
09 18:15 W 10 10.00 Fair CLR 66.2 51.8 60% 29.89 0.0
09 17:55 W 12 10.00 Fair CLR 68 51.8 56% 29.89 0.0
09 17:35 W 12 10.00 Fair CLR 69.8 53.6 57% 29.89 0.0
09 17:15 W 10 10.00 Fair CLR 71.6 53.6 53% 29.89 0.0
09 16:55 W 13 10.00 Fair CLR 71.6 51.8 50% 29.89 0.0
09 16:35 W 13 10.00 Fair CLR 73.4 51.8 47% 29.89 0.0
09 16:15 W 14 10.00 Fair CLR 75.2 53.6 47% 78 29.89 0.0
09 15:55 W 14 10.00 Fair CLR 75.2 53.6 47% 78 29.88 0.0
09 15:35 W 17 10.00 Fair CLR 75.2 53.6 47% 78 29.89 0.0
09 15:15 W 15 10.00 Fair CLR 77 53.6 44% 78 29.89 0.0
09 14:55 W 14 10.00 Fair CLR 77 53.6 44% 78 29.89 0.0
09 14:35 W 10 10.00 Fair CLR 78.8 55.4 45% 79 29.9 0.0
09 14:15 W 9 G 16 10.00 Fair CLR 78.8 55.4 45% 79 29.9 0.0
09 13:55 Vrbl 7 G 14 8.00 Fair CLR 77 55.4 47% 79 29.91 0.0
09 13:35 W 7 G 13 10.00 Fair CLR 75.2 53.6 47% 78 29.91 0.0
09 13:15 W 7 10.00 Fair CLR 75.2 53.6 47% 78 29.92 0.0
09 12:55 Vrbl 7 10.00 Fair CLR 75.2 53.6 47% 78 29.92 0.0
09 12:35 W 7 10.00 Fair CLR 73.4 53.6 50% 29.93 0.0
09 12:15 W 7 10.00 Fair CLR 71.6 51.8 50% 29.94 0.0
09 11:55 Vrbl 6 10.00 Fair CLR 69.8 53.6 57% 29.94 0.0
09 11:35 Vrbl 6 10.00 Fair CLR 66.2 53.6 64% 29.95 0.0
09 11:15 SW 6 10.00 Fair CLR 64.4 53.6 68% 29.95 0.0
09 10:55 Calm 10.00 Fair CLR 62.6 53.6 73% 29.96 0.0
09 10:35 Vrbl 5 10.00 A Few Clouds FEW013 60.8 53.6 77% 29.96 0.0
09 10:15 SW 5 10.00 Mostly Cloudy SCT008 BKN013 57.2 53.6 88% 29.96 0.0
09 09:55 Vrbl 3 10.00 Overcast OVC007 55.4 51.8 88% 29.96 0.0
09 09:35 W 6 10.00 Overcast OVC006 53.6 51.8 94% 29.96 0.0
09 09:15 Calm 9.00 Overcast OVC004 53.6 51.8 94% 29.97 0.0
09 08:55 Vrbl 3 4.00 Fog/Mist OVC004 51.8 51.8 100% 29.97 0.0
09 08:35 Calm 3.00 Fog/Mist OVC003 51.8 51.8 100% 29.97 0.0
09 08:15 Calm 2.50 Fog/Mist OVC003 51.8 51.8 100% 29.97 0.0
09 07:55 Vrbl 3 2.50 Fog/Mist OVC003 51.8 51.8 100% 29.97 0.0
09 07:35 W 3 1.00 Fog/Mist OVC003 50 50 100% 29.96 0.0
09 07:15 Calm 0.75 Fog/Mist OVC003 50 50 100% 29.96 0.0
09 06:55 Calm 0.75 Fog/Mist OVC003 50 50 100% 29.95 0.0
09 06:35 Calm 1.00 Fog/Mist OVC003 51.8 51.8 100% 29.95 0.0
09 05:55 Calm 2.00 Fog/Mist OVC003 51.8 51.8 100% 29.95 0.0
09 05:35 Calm 2.00 Fog/Mist OVC003 51.8 51.8 100% 29.95 0.0
09 05:15 Calm 2.50 Fog/Mist OVC003 51.8 51.8 100% 29.95 0.0
09 04:55 NE 5 2.00 Fog/Mist OVC003 51.8 51.8 100% 29.95 0.0
09 04:35 Calm 2.50 Fog/Mist OVC003 51.8 51.8 100% 29.95 0.0
09 04:15 Calm 2.50 Fog/Mist OVC003 51.8 51.8 100% 29.96 0.0
09 03:55 Calm 3.00 Fog/Mist OVC004 51.8 51.8 100% 29.96 0.0
09 03:35 Calm 4.00 Fog/Mist OVC004 51.8 51.8 100% 29.97 0.0
09 03:15 Calm 4.00 Fog/Mist OVC004 51.8 51.8 100% 29.96 0.0
09 02:55 Calm 5.00 Fog/Mist OVC004 51.8 51.8 100% 29.96 0.0
09 02:35 Calm 5.00 Fog/Mist OVC004 51.8 51.8 100% 29.97 0.0
09 02:15 Calm 5.00 Fog/Mist OVC004 51.8 51.8 100% 29.97 0.0
09 01:55 Calm 6.00 Fog/Mist OVC004 51.8 51.8 100% 29.98 0.0
09 01:35 Calm 5.00 Fog/Mist OVC004 51.8 51.8 100% 29.98 0.0
09 00:55 Calm 7.00 Overcast OVC005 53.6 51.8 94% 29.99 0.0
09 00:35 Calm 6.00 Fog/Mist OVC005 53.6 53.6 100% 29.99 0.0
09 00:15 Calm 6.00 Fog/Mist OVC004 51.8 51.8 100% 29.99 0.0
08 23:55 Vrbl 5 7.00 Overcast OVC005 51.8 51.8 100% 30 0.0
08 23:35 W 6 6.00 Fog/Mist OVC006 53.6 53.6 100% 30 0.0
08 23:15 Calm 6.00 Fog/Mist OVC005 53.6 53.6 100% 30 0.0
08 22:55 W 3 6.00 Fog/Mist OVC006 51.8 51.8 100% 30 0.0
08 22:35 SW 3 6.00 Fog/Mist OVC004 51.8 51.8 100% 30 0.0
08 22:15 SW 3 6.00 Fog/Mist OVC005 51.8 51.8 100% 30 0.0
08 21:55 SW 5 6.00 Fog/Mist OVC004 51.8 51.8 100% 30 0.0
08 21:35 SW 5 7.00 Overcast BKN004 OVC017 51.8 51.8 100% 29.99 0.0
08 21:15 SW 5 8.00 Overcast FEW005 OVC016 53.6 51.8 94% 29.98 0.0
08 20:55 W 5 8.00 Mostly Cloudy BKN016 53.6 51.8 94% 29.97 0.0
08 20:35 W 7 9.00 Mostly Cloudy BKN016 53.6 51.8 94% 29.97 0.0
08 20:15 Vrbl 6 9.00 Partly Cloudy SCT016 55.4 53.6 94% 29.97 0.0
08 19:55 W 9 9.00 Fair CLR 55.4 53.6 94% 29.96 0.0
08 19:35 SW 6 G 14 10.00 Fair CLR 59 53.6 82% 29.95 0.0
08 19:15 W 10 10.00 Fair CLR 60.8 53.6 77% 29.95 0.0
08 18:55 W 13 10.00 Fair CLR 62.6 53.6 73% 29.94 0.0
08 18:35 SW 10 10.00 Fair CLR 62.6 53.6 73% 29.94 0.0
08 18:15 SW 12 G 18 10.00 Fair CLR 64.4 53.6 68% 29.94 0.0
08 17:35 W 12 G 18 10.00 Fair CLR 68 53.6 60% 29.94 0.0
08 17:15 W 12 G 17 10.00 Fair CLR 68 53.6 60% 29.94 0.0
08 16:55 SW 14 10.00 Fair CLR 68 53.6 60% 29.95 0.0
08 16:35 SW 14 G 20 10.00 Fair CLR 68 53.6 60% 29.95 0.0
08 16:15 W 14 G 21 10.00 Fair CLR 68 53.6 60% 29.96 0.0
08 15:55 W 16 10.00 Fair CLR 69.8 53.6 57% 29.96 0.0
08 15:15 W 13 G 21 10.00 Fair CLR 71.6 53.6 53% 29.97 0.0
08 14:55 W 17 10.00 Fair CLR 73.4 53.6 50% 29.97 0.0
08 14:35 W 14 G 20 10.00 Fair CLR 73.4 53.6 50% 29.98 0.0
08 14:15 W 12 10.00 Fair CLR 73.4 55.4 53% 29.98 0.0
08 13:55 W 10 10.00 Fair CLR 75.2 55.4 50% 78 29.99 0.0
08 13:35 W 12 10.00 Fair CLR 73.4 57.2 57% 29.99 0.0
08 13:15 W 8 G 14 10.00 Fair CLR 71.6 57.2 61% 30 0.0
08 12:55 SW 7 G 13 10.00 Fair CLR 69.8 57.2 64% 30.01 0.0
08 12:35 Vrbl 6 10.00 Fair CLR 69.8 57.2 64% 30.02 0.0
08 12:15 Vrbl 7 10.00 Fair CLR 68 57.2 69% 30.02 0.0
08 11:55 W 7 9.00 Fair CLR 66.2 55.4 68% 30.02 0.0
08 11:35 Vrbl 7 9.00 Fair CLR 64.4 55.4 73% 30.03 0.0
08 11:15 SW 8 10.00 A Few Clouds FEW016 64.4 55.4 73% 30.04 0.0
08 10:55 SW 6 10.00 Mostly Cloudy BKN015 62.6 55.4 77% 30.04 0.0
08 10:35 Vrbl 5 10.00 Overcast OVC012 60.8 53.6 77% 30.04 0.0
08 10:15 Vrbl 5 10.00 Overcast OVC011 57.2 53.6 88% 30.04 0.0
08 09:55 Calm 10.00 Overcast OVC008 57.2 53.6 88% 30.04 0.0
08 09:35 Calm 10.00 Overcast OVC005 53.6 53.6 100% 30.05 0.0
08 09:15 Calm 7.00 Overcast OVC004 53.6 53.6 100% 30.05 0.0
08 08:55 Calm 6.00 Fog/Mist OVC004 53.6 53.6 100% 30.05 0.0
08 08:35 Calm 5.00 Fog/Mist OVC004 51.8 51.8 100% 30.05 0.0
08 08:15 Calm 3.00 Fog/Mist OVC003 51.8 51.8 100% 30.05 0.0
08 07:55 E 5 3.00 Fog/Mist OVC003 51.8 51.8 100% 30.05 0.0
08 07:35 Calm 2.00 Fog/Mist OVC003 51.8 51.8 100% 30.05 0.0
08 07:15 NW 3 3.00 Fog/Mist OVC003 51.8 51.8 100% 30.05 0.0
08 06:55 Calm 2.00 Fog/Mist OVC003 51.8 51.8 100% 30.05 0.0
08 06:15 Calm 2.00 Fog/Mist OVC003 51.8 51.8 100% 30.04 0.0
08 05:35 Calm 2.00 Fog/Mist OVC003 51.8 51.8 100% 30.03 0.0
08 05:15 Calm 2.50 Fog/Mist OVC003 51.8 51.8 100% 30.03 0.0
08 04:55 Calm 3.00 Fog/Mist OVC003 51.8 51.8 100% 30.03 0.0
08 04:35 Calm 3.00 Fog/Mist OVC003 51.8 51.8 100% 30.03 0.0
08 04:15 Calm 3.00 Fog/Mist OVC003 51.8 51.8 100% 30.02 0.0
08 03:55 Calm 2.50 Fog/Mist OVC003 51.8 51.8 100% 30.03 0.0
08 03:35 Calm 2.00 Fog/Mist OVC003 51.8 51.8 100% 30.03 0.0
08 03:15 Calm 1.50 Fog/Mist OVC003 51.8 51.8 100% 30.03 0.0
08 02:55 NW 3 2.00 Fog/Mist OVC003 51.8 51.8 100% 30.03 0.0
08 02:35 Calm 1.75 Fog/Mist OVC003 51.8 51.8 100% 30.03 0.0
08 02:15 W 3 1.75 Fog/Mist OVC003 51.8 51.8 100% 30.03 0.0
08 01:55 Calm 1.25 Fog/Mist OVC003 51.8 51.8 100% 30.03 0.0
08 01:35 Calm 0.50 Fog OVC002 51.8 51.8 100% 30.03 0.0
08 01:15 SW 3 0.15 Fog OVC002 51.8 51.8 100% 30.03 0.0
08 00:35 Calm 6.00 Fog/Mist SCT003 50 50 100% 30.03 0.0
08 00:15 Calm 7.00 A Few Clouds FEW003 51.8 51.8 100% 30.03 0.0
07 23:55 Calm 7.00 A Few Clouds FEW003 FEW018 FEW028 51.8 51.8 100% 30.03 0.0
07 23:35 Calm 7.00 Mostly Cloudy FEW003 SCT022 BKN028 51.8 51.8 100% 30.03 0.0
07 22:55 Calm 8.00 Overcast BKN020 BKN025 OVC029 53.6 53.6 100% 30.03 0.0
07 22:35 Calm 9.00 Overcast BKN019 OVC024 53.6 53.6 100% 30.03 0.0
07 22:15 Calm 9.00 Mostly Cloudy BKN020 BKN026 53.6 53.6 100% 30.03 0.0
07 21:55 SW 3 10.00 Mostly Cloudy BKN018 BKN023 BKN027 53.6 53.6 100% 30.03 0.0
07 21:35 Calm 10.00 Mostly Cloudy BKN018 BKN022 53.6 53.6 100% 30.03 0.0
07 21:15 Calm 10.00 Mostly Cloudy BKN018 55.4 53.6 94% 30.03 0.0
07 20:55 W 6 10.00 Partly Cloudy SCT019 55.4 53.6 94% 30.02 0.0
07 20:35 SW 5 10.00 Partly Cloudy SCT018 SCT028 55.4 53.6 94% 30.02 0.0
07 19:55 W 8 G 14 10.00 Fair CLR 57.2 53.6 88% 30 0.0
07 19:35 W 7 G 14 10.00 Fair CLR 59 53.6 82% 30 0.0
07 19:15 W 8 10.00 Fair CLR 60.8 55.4 83% 29.99 0.0
07 18:55 W 9 10.00 Fair CLR 62.6 55.4 77% 29.98 0.0
07 18:35 W 10 G 16 10.00 Fair CLR 64.4 55.4 73% 29.98 0.0
07 18:15 W 13 10.00 Fair CLR 66.2 55.4 68% 29.97 0.0
07 17:55 W 12 10.00 Fair CLR 68 55.4 64% 29.97 0.0
07 17:35 W 12 G 18 10.00 Fair CLR 69.8 55.4 60% 29.97 0.0
07 17:15 W 14 10.00 Fair CLR 71.6 55.4 57% 29.97 0.0
07 16:55 W 13 10.00 Fair CLR 71.6 55.4 57% 29.97 0.0
07 16:35 W 13 10.00 Fair CLR 73.4 55.4 53% 29.96 0.0
07 16:15 W 10 10.00 Fair CLR 75.2 57.2 54% 78 29.96 0.0
07 15:55 W 10 10.00 Fair CLR 77 57.2 51% 79 29.96 0.0
07 15:35 W 13 10.00 Fair CLR 75.2 55.4 50% 78 29.96 0.0
07 15:15 W 15 10.00 Fair CLR 77 57.2 51% 79 29.97 0.0
07 14:55 W 15 10.00 Fair CLR 77 57.2 51% 79 29.97 0.0
07 14:35 W 15 10.00 Fair CLR 77 57.2 51% 79 29.97 0.0
07 14:15 W 14 10.00 Fair CLR 78.8 57.2 48% 80 29.97 0.0
07 13:55 W 12 10.00 Fair CLR 78.8 57.2 48% 80 29.98 0.0
07 13:35 W 10 10.00 Fair CLR 78.8 57.2 48% 80 29.98 0.0
07 13:15 W 12 10.00 Fair CLR 78.8 57.2 48% 80 29.99 0.0
07 12:35 SW 6 10.00 Fair CLR 77 55.4 47% 79 30 0.0
07 12:15 W 7 10.00 Fair CLR 75.2 53.6 47% 78 30.01 0.0
07 11:55 SW 7 10.00 Fair CLR 71.6 55.4 57% 30.01 0.0
07 11:35 Vrbl 5 10.00 Fair CLR 69.8 55.4 60% 30.02 0.0
07 11:15 W 7 G 13 8.00 Fair CLR 68 55.4 64% 30.02 0.0
07 10:55 Vrbl 3 10.00 Fair CLR 64.4 55.4 73% 30.02 0.0
07 10:15 Vrbl 5 10.00 Fair CLR 60.8 53.6 77% 30.03 0.0
07 09:55 Vrbl 3 10.00 Fair CLR 59 53.6 82% 30.03 0.0
07 09:35 Calm 10.00 Mostly Cloudy SCT006 BKN009 59 53.6 82% 30.04 0.0
07 08:55 Calm 4.00 Fog/Mist OVC003 51.8 51.8 100% 30.05 0.0
07 08:35 Calm 1.50 Fog/Mist OVC003 51.8 51.8 100% 30.05 0.0
07 08:15 Calm 0.25 Fog OVC003 51.8 51.8 100% 30.05 0.0
07 07:55 Calm 0.50 Fog OVC003 51.8 51.8 100% 30.04 0.0
07 07:35 Calm 0.25 Fog OVC003 50 50 100% 30.04 0.0
07 06:55 N 3 0.25 Fog OVC003 50 50 100% 30.04 0.0
Date Time (pdt) Wind (mph) Vis. (mi.) Weather Sky Cond. Air Dwpt Max. Min. Relative Humidity Wind Chill (°F) Heat Index (°F) altimeter (in) sea level (mb) 1 hr 3 hr 6 hr
6 hour
Temperature (ºF) Pressure Precipitation (in)